Time;durP1;ratioP1;P1;durP2;ratioP2;P2;SDS_P1;SDS_P2;PMS_P1;PMS_P2;Temp;Humidity;BMP_temperature;BMP_pressure;BME280_temperature;BME280_humidity;BME280_pressure;Samples;Min_cycle;Max_cycle;Signal;HPM_P1;HPM_P2
2023/12/09 00:00:20;;;;;;;52.38;26.67;;;;;;;7.56;71.26;100988.22;5079690;27;98919;-75
2023/12/09 00:02:46;;;;;;;50.55;25.88;;;;;;;7.33;72.05;100979.94;5079557;27;99114;-75
2023/12/09 00:05:13;;;;;;;50.00;26.80;;;;;;;7.35;71.34;100992.13;5078290;27;99506;-75
2023/12/09 00:07:39;;;;;;;55.55;27.13;;;;;;;7.36;71.69;100993.00;5078541;27;96773;-75
2023/12/09 00:10:07;;;;;;;54.63;26.60;;;;;;;7.51;71.27;100990.97;5083256;27;96790;-76
2023/12/09 00:12:34;;;;;;;48.65;25.23;;;;;;;7.22;71.78;100987.16;5084712;27;99260;-76
2023/12/09 00:15:01;;;;;;;54.60;27.05;;;;;;;7.31;71.75;100987.84;5080952;27;99193;-71
2023/12/09 00:17:27;;;;;;;51.55;27.63;;;;;;;7.51;71.06;100984.84;5083789;27;97251;-71
2023/12/09 00:19:54;;;;;;;49.53;26.23;;;;;;;7.38;71.43;100989.47;5077094;27;96717;-72
2023/12/09 00:22:20;;;;;;;53.88;27.83;;;;;;;7.58;70.47;100984.69;5088008;27;100616;-70
2023/12/09 00:24:47;;;;;;;50.85;25.25;;;;;;;7.70;70.32;100990.59;5083746;27;98818;-70
2023/12/09 00:27:14;;;;;;;48.10;25.88;;;;;;;7.44;71.24;100986.72;5086195;27;99025;-71
2023/12/09 00:29:41;;;;;;;50.58;26.45;;;;;;;7.56;70.71;100986.47;5081922;27;96837;-70
2023/12/09 00:32:08;;;;;;;49.22;26.40;;;;;;;7.64;70.10;100993.34;5074090;27;97817;-71
2023/12/09 00:34:35;;;;;;;51.28;26.30;;;;;;;7.62;70.78;100993.38;5085459;27;98871;-72
2023/12/09 00:37:01;;;;;;;52.28;25.92;;;;;;;7.41;71.15;100981.53;5080353;27;96772;-72
2023/12/09 00:39:27;;;;;;;51.40;25.60;;;;;;;7.44;71.24;100996.34;5084909;27;96917;-72
2023/12/09 00:41:54;;;;;;;54.33;26.13;;;;;;;7.31;71.52;100994.84;5082778;27;98963;-72
2023/12/09 00:44:21;;;;;;;49.28;25.17;;;;;;;7.50;70.66;100993.63;5079530;27;99102;-72
2023/12/09 00:46:49;;;;;;;55.00;26.55;;;;;;;7.30;71.88;100993.97;5084573;27;97318;-74
2023/12/09 00:49:15;;;;;;;56.58;26.30;;;;;;;7.64;70.52;100995.97;5078344;27;99569;-73
2023/12/09 00:51:41;;;;;;;51.53;25.10;;;;;;;7.52;70.59;100997.97;5074447;27;99387;-74
2023/12/09 00:54:08;;;;;;;52.80;25.63;;;;;;;7.79;70.23;100996.56;5084052;27;99199;-75
2023/12/09 00:56:34;;;;;;;53.53;26.83;;;;;;;7.65;70.38;100995.09;5084949;27;97596;-74
2023/12/09 00:59:01;;;;;;;47.40;25.33;;;;;;;7.70;70.78;100998.47;5082626;27;97408;-74
2023/12/09 01:01:27;;;;;;;48.97;25.20;;;;;;;7.75;70.09;100999.25;5075953;27;98753;-73
2023/12/09 01:03:55;;;;;;;52.05;26.42;;;;;;;7.47;71.00;100998.94;5081487;27;99404;-74
2023/12/09 01:06:21;;;;;;;51.92;25.98;;;;;;;7.53;70.82;100999.69;5086349;27;100608;-73
2023/12/09 01:08:48;;;;;;;48.22;25.02;;;;;;;7.57;70.59;101005.75;5082266;27;96876;-75
2023/12/09 01:11:14;;;;;;;47.88;25.30;;;;;;;7.80;69.80;101002.69;5087940;27;97476;-75
2023/12/09 01:13:41;;;;;;;48.35;24.83;;;;;;;7.64;70.03;101009.13;5083958;27;100874;-74
2023/12/09 01:16:09;;;;;;;47.13;24.20;;;;;;;7.74;69.52;101005.44;5085081;27;97661;-75
2023/12/09 01:18:35;;;;;;;49.33;25.10;;;;;;;7.65;70.37;101009.09;5083686;27;99138;-75
2023/12/09 01:21:03;;;;;;;49.63;24.67;;;;;;;7.49;70.76;101012.91;5082942;27;98729;-74
2023/12/09 01:23:29;;;;;;;51.03;24.58;;;;;;;7.44;71.10;101013.00;5082579;27;98231;-74
2023/12/09 01:25:56;;;;;;;48.97;25.02;;;;;;;7.49;71.17;101015.53;5080656;27;97081;-75
2023/12/09 01:28:22;;;;;;;51.13;25.08;;;;;;;7.56;70.41;101012.78;5088265;27;97464;-73
2023/12/09 01:30:49;;;;;;;49.55;25.20;;;;;;;7.64;70.05;101011.75;5076611;27;97685;-74
2023/12/09 01:33:15;;;;;;;49.65;24.85;;;;;;;7.65;70.05;101019.63;5081291;27;98790;-74
2023/12/09 01:35:45;;;;;;;50.92;25.88;;;;;;;7.59;70.93;101018.00;5078846;27;96839;-76
2023/12/09 01:38:13;;;;;;;48.40;24.30;;;;;;;7.67;70.34;101014.34;5082069;27;97175;-74
2023/12/09 01:40:39;;;;;;;41.97;23.63;;;;;;;7.73;69.36;101016.84;5082494;27;98865;-74
2023/12/09 01:43:09;;;;;;;50.00;24.42;;;;;;;7.98;69.15;101011.06;5084546;27;98732;-72
2023/12/09 01:45:35;;;;;;;47.15;23.98;;;;;;;7.65;70.14;101013.50;5084710;27;96742;-74
2023/12/09 01:48:02;;;;;;;49.90;24.10;;;;;;;7.75;70.40;101005.38;5076016;27;96774;-74
2023/12/09 01:50:29;;;;;;;45.95;24.25;;;;;;;7.65;70.11;101003.84;5082031;27;99255;-75
2023/12/09 01:52:55;;;;;;;50.75;24.52;;;;;;;7.78;69.98;101009.72;5077133;27;99217;-74
2023/12/09 01:55:24;;;;;;;47.30;25.00;;;;;;;7.99;69.85;101004.91;5081349;27;96718;-75
2023/12/09 01:57:51;;;;;;;47.60;24.90;;;;;;;7.68;70.55;101005.56;5085695;27;96766;-74
2023/12/09 02:00:18;;;;;;;46.42;24.90;;;;;;;7.65;70.40;101003.84;5076325;27;98916;-75
2023/12/09 02:02:45;;;;;;;48.28;23.83;;;;;;;7.94;69.74;101003.28;5076152;27;101374;-74
2023/12/09 02:05:12;;;;;;;47.97;23.85;;;;;;;7.65;70.22;100995.09;5086074;27;96811;-75
2023/12/09 02:07:38;;;;;;;50.60;25.05;;;;;;;7.80;70.10;100994.78;5082773;27;97114;-76
2023/12/09 02:10:06;;;;;;;47.83;24.45;;;;;;;7.94;69.44;100998.00;5081245;27;100984;-76
2023/12/09 02:12:41;;;;;;;49.10;25.90;;;;;;;8.02;69.44;100990.81;5079881;27;98904;-77
2023/12/09 02:15:12;;;;;;;44.55;23.30;;;;;;;7.96;69.38;100993.56;5084667;27;96759;-76
2023/12/09 02:17:43;;;;;;;52.40;25.23;;;;;;;7.98;69.66;101002.31;5070987;27;98788;-76
2023/12/09 02:20:12;;;;;;;50.47;24.58;;;;;;;7.99;69.53;101004.91;5079793;27;98992;-75
2023/12/09 02:22:38;;;;;;;47.30;24.30;;;;;;;7.83;70.29;101006.09;5072802;27;98793;-75
2023/12/09 02:25:07;;;;;;;47.42;24.50;;;;;;;7.87;70.43;101010.44;5077626;27;96726;-74
2023/12/09 02:27:39;;;;;;;44.83;24.70;;;;;;;7.95;70.11;101012.88;5077185;27;97156;-75
2023/12/09 02:30:16;;;;;;;47.80;24.60;;;;;;;7.84;70.18;101004.34;5081636;27;99147;-74
2023/12/09 02:32:44;;;;;;;50.67;24.98;;;;;;;7.94;69.78;101000.66;5079369;27;100373;-75
2023/12/09 02:35:11;;;;;;;53.17;25.77;;;;;;;7.65;71.00;101005.59;5085883;27;96803;-74
2023/12/09 02:37:39;;;;;;;50.90;25.65;;;;;;;7.71;71.01;101003.72;5082322;27;96904;-75
2023/12/09 02:40:09;;;;;;;49.58;25.25;;;;;;;7.80;70.65;101005.31;5082124;27;99122;-75
2023/12/09 02:42:36;;;;;;;47.03;24.77;;;;;;;7.78;70.67;101000.06;5083725;27;98900;-74
2023/12/09 02:45:05;;;;;;;53.30;26.13;;;;;;;7.88;70.12;101008.63;5082428;27;96907;-75
2023/12/09 02:47:31;;;;;;;48.65;24.50;;;;;;;7.88;70.68;100996.34;5072608;27;96775;-75
2023/12/09 02:49:57;;;;;;;52.40;25.67;;;;;;;7.86;70.96;100995.53;5087906;27;99021;-75
2023/12/09 02:52:24;;;;;;;52.25;25.95;;;;;;;7.75;70.52;100994.00;5078233;27;102041;-75
2023/12/09 02:54:50;;;;;;;53.75;24.98;;;;;;;7.51;71.61;100993.59;5082158;27;96926;-75
2023/12/09 02:57:18;;;;;;;53.67;25.15;;;;;;;7.87;70.59;100986.75;5078699;27;96824;-75
2023/12/09 02:59:45;;;;;;;56.15;25.30;;;;;;;7.81;70.88;100983.38;5081731;27;98885;-76
2023/12/09 03:02:11;;;;;;;54.92;26.08;;;;;;;8.07;69.86;100981.06;5081890;27;98855;-75
2023/12/09 03:04:37;;;;;;;54.10;25.48;;;;;;;8.07;70.47;100986.34;5084601;27;96824;-76
2023/12/09 03:07:04;;;;;;;55.85;26.67;;;;;;;8.00;70.62;100982.97;5078718;27;98418;-76
2023/12/09 03:09:30;;;;;;;54.67;26.90;;;;;;;7.99;70.37;100989.13;5073634;27;99268;-76
2023/12/09 03:11:57;;;;;;;54.65;25.90;;;;;;;7.96;70.74;100986.53;5076373;27;98805;-74
2023/12/09 03:14:24;;;;;;;51.00;25.85;;;;;;;7.86;71.36;100992.91;5084807;27;100365;-75
2023/12/09 03:16:51;;;;;;;54.47;26.90;;;;;;;7.88;71.30;101003.38;5078208;27;96766;-74
2023/12/09 03:19:17;;;;;;;53.42;26.92;;;;;;;7.78;71.43;100999.22;5079938;27;100591;-74
2023/12/09 03:21:44;;;;;;;54.92;26.92;;;;;;;7.70;72.02;101001.13;5078687;27;99483;-75
2023/12/09 03:24:10;;;;;;;63.35;26.98;;;;;;;7.72;71.53;100992.31;5086126;27;96991;-74
2023/12/09 03:26:37;;;;;;;56.28;25.77;;;;;;;8.06;70.61;101005.66;5085725;27;97110;-75
2023/12/09 03:29:03;;;;;;;56.67;26.00;;;;;;;7.81;71.16;101007.06;5084530;27;99381;-76
2023/12/09 03:31:31;;;;;;;59.28;26.40;;;;;;;7.79;71.94;101001.81;5081095;27;98932;-75
2023/12/09 03:33:57;;;;;;;58.33;26.58;;;;;;;7.95;71.30;101003.22;5084357;27;96863;-75
2023/12/09 03:36:24;;;;;;;57.53;26.27;;;;;;;7.86;72.00;100994.66;5080548;27;96892;-75
2023/12/09 03:38:50;;;;;;;56.10;25.88;;;;;;;7.81;72.10;100996.53;5083653;27;98919;-75
2023/12/09 03:41:16;;;;;;;59.20;26.27;;;;;;;7.94;71.69;100990.13;5074323;27;100801;-75
2023/12/09 03:43:43;;;;;;;63.63;27.42;;;;;;;7.75;72.22;100986.09;5081467;27;97513;-75
2023/12/09 03:46:09;;;;;;;68.88;28.38;;;;;;;7.72;72.92;100989.69;5083483;27;97182;-75
2023/12/09 03:48:37;;;;;;;66.28;29.25;;;;;;;7.80;72.93;100987.78;5082042;27;99723;-75
2023/12/09 03:51:03;;;;;;;68.35;28.42;;;;;;;7.80;72.72;100989.53;5078658;27;99029;-74
2023/12/09 03:53:30;;;;;;;68.53;27.75;;;;;;;8.00;71.58;100984.72;5079457;27;98033;-74
2023/12/09 03:55:56;;;;;;;67.45;28.77;;;;;;;7.82;72.82;101000.88;5077870;27;98584;-73
2023/12/09 03:58:23;;;;;;;68.57;29.52;;;;;;;7.87;72.54;101010.44;5077443;27;101738;-74
2023/12/09 04:00:50;;;;;;;75.05;30.73;;;;;;;7.96;72.60;100999.69;5085284;27;99141;-73
2023/12/09 04:03:16;;;;;;;70.75;29.35;;;;;;;7.94;72.58;101005.91;5083129;27;103233;-74
2023/12/09 04:05:44;;;;;;;70.07;28.85;;;;;;;8.08;71.89;101003.81;5074198;27;96913;-74
2023/12/09 04:08:10;;;;;;;70.18;30.35;;;;;;;8.27;71.31;101005.16;5079499;27;97372;-74
2023/12/09 04:10:37;;;;;;;71.88;29.95;;;;;;;8.22;71.56;101008.81;5076012;27;99191;-73
2023/12/09 04:13:03;;;;;;;73.25;31.10;;;;;;;7.85;73.06;101006.09;5073260;27;96942;-74
2023/12/09 04:15:29;;;;;;;74.80;31.23;;;;;;;7.97;72.73;101011.97;5079628;27;96759;-74
2023/12/09 04:17:56;;;;;;;75.68;30.95;;;;;;;7.89;73.44;101013.00;5081295;27;98880;-74
2023/12/09 04:20:22;;;;;;;73.63;31.35;;;;;;;7.88;73.81;101006.00;5081018;27;98740;-73
2023/12/09 04:22:50;;;;;;;79.30;30.60;;;;;;;7.73;73.73;101004.56;5079449;27;96773;-73
2023/12/09 04:25:16;;;;;;;77.65;33.88;;;;;;;7.91;73.68;101009.47;5075700;27;96972;-73
2023/12/09 04:27:43;;;;;;;73.60;30.95;;;;;;;7.95;73.41;101002.34;5077390;27;98903;-73
2023/12/09 04:30:11;;;;;;;77.97;31.58;;;;;;;7.85;73.93;101013.97;5081158;27;99230;-72
2023/12/09 04:32:38;;;;;;;85.50;32.22;;;;;;;7.87;73.53;101007.81;5072131;27;99371;-73
2023/12/09 04:35:06;;;;;;;74.03;30.45;;;;;;;7.88;74.04;101011.25;5073677;27;96762;-73
2023/12/09 04:37:32;;;;;;;78.00;31.42;;;;;;;7.96;73.91;101004.97;5079134;27;98876;-74
2023/12/09 04:40:00;;;;;;;81.53;32.70;;;;;;;8.09;73.11;101002.94;5075977;27;98763;-74
2023/12/09 04:42:27;;;;;;;80.95;30.00;;;;;;;8.04;73.60;101004.81;5089442;27;96722;-73
2023/12/09 04:44:54;;;;;;;77.22;31.00;;;;;;;7.93;73.42;101004.16;5081836;27;97754;-74
2023/12/09 04:47:21;;;;;;;85.72;32.83;;;;;;;8.20;72.47;101002.72;5082088;27;102065;-74
2023/12/09 04:49:47;;;;;;;80.38;31.83;;;;;;;8.10;73.09;101002.03;5080889;27;98762;-73
2023/12/09 04:52:14;;;;;;;82.82;30.88;;;;;;;8.07;72.94;101010.03;5087212;27;98477;-74
2023/12/09 04:54:40;;;;;;;86.53;31.95;;;;;;;8.00;73.08;101005.78;5083327;27;97089;-74
2023/12/09 04:57:08;;;;;;;77.50;31.30;;;;;;;7.80;73.91;101000.06;5084161;27;98962;-75
2023/12/09 04:59:34;;;;;;;85.35;31.52;;;;;;;7.83;73.74;100994.72;5083118;27;100958;-74
2023/12/09 05:02:00;;;;;;;93.10;32.78;;;;;;;8.01;73.61;101004.84;5083763;27;97241;-74
2023/12/09 05:04:27;;;;;;;84.35;32.67;;;;;;;8.17;72.84;100992.25;5083199;27;96978;-74
2023/12/09 05:06:53;;;;;;;87.97;32.17;;;;;;;7.84;73.45;100997.31;5084678;27;99307;-74
2023/12/09 05:09:22;;;;;;;97.53;34.10;;;;;;;8.17;73.17;101002.78;5080347;27;98805;-72
2023/12/09 05:11:48;;;;;;;90.03;32.50;;;;;;;8.01;73.60;100991.69;5085528;27;97172;-73
2023/12/09 05:14:16;;;;;;;95.15;34.60;;;;;;;7.78;74.38;101000.06;5093264;27;96800;-74
2023/12/09 05:16:42;;;;;;;91.60;32.15;;;;;;;7.74;74.40;100995.78;5089022;27;97837;-73
2023/12/09 05:19:09;;;;;;;88.93;33.35;;;;;;;7.82;74.71;100998.25;5091378;27;101730;-74
2023/12/09 05:21:36;;;;;;;96.20;34.85;;;;;;;7.83;74.52;100992.94;5084098;27;96708;-74
2023/12/09 05:24:02;;;;;;;102.97;33.03;;;;;;;7.90;74.72;100991.94;5085499;27;97039;-74
2023/12/09 05:26:30;;;;;;;85.97;31.17;;;;;;;7.80;74.36;100986.91;5084718;27;97428;-75
2023/12/09 05:28:57;;;;;;;93.80;33.30;;;;;;;7.64;75.67;100981.06;5086553;27;98862;-75
2023/12/09 05:31:24;;;;;;;100.85;34.55;;;;;;;7.87;75.46;100980.63;5085902;27;96832;-75
2023/12/09 05:33:51;;;;;;;94.72;34.40;;;;;;;7.91;74.68;100979.66;5086941;27;98824;-74
2023/12/09 05:36:17;;;;;;;99.97;32.03;;;;;;;7.92;74.97;100976.13;5083210;27;99197;-76
2023/12/09 05:38:44;;;;;;;105.28;34.90;;;;;;;7.83;75.32;100968.41;5084100;27;97833;-74
2023/12/09 05:41:11;;;;;;;98.22;33.08;;;;;;;7.68;75.91;100966.13;5083011;27;96821;-74
2023/12/09 05:43:37;;;;;;;85.65;32.38;;;;;;;7.98;75.11;100957.56;5083740;27;97558;-74
2023/12/09 05:46:04;;;;;;;99.88;33.35;;;;;;;7.95;74.62;100955.00;5084390;27;98679;-74
2023/12/09 05:48:34;;;;;;;92.03;31.05;;;;;;;8.07;74.70;100960.00;5083425;27;98783;-74
2023/12/09 05:51:00;;;;;;;99.55;32.75;;;;;;;8.18;74.25;100955.38;5084052;27;96835;-74
2023/12/09 05:53:27;;;;;;;93.63;30.75;;;;;;;7.95;75.22;100947.09;5087642;27;96864;-73
2023/12/09 05:55:53;;;;;;;92.43;30.73;;;;;;;7.83;75.42;100953.50;5086045;27;98152;-74
2023/12/09 05:58:20;;;;;;;101.75;32.33;;;;;;;7.70;76.16;100956.41;5082221;27;99430;-74
2023/12/09 06:00:46;;;;;;;86.68;30.67;;;;;;;7.94;75.21;100964.66;5072422;27;96739;-74
2023/12/09 06:03:12;;;;;;;84.97;31.90;;;;;;;7.96;75.48;100964.63;5085559;27;97272;-74
2023/12/09 06:05:40;;;;;;;86.55;31.25;;;;;;;7.90;75.35;100963.00;5081319;27;97567;-75
2023/12/09 06:08:06;;;;;;;93.85;31.73;;;;;;;7.98;75.29;100954.94;5089736;27;98810;-74
2023/12/09 06:10:33;;;;;;;74.07;30.40;;;;;;;7.96;75.80;100952.34;5083932;27;96757;-74
2023/12/09 06:12:59;;;;;;;90.30;31.80;;;;;;;7.87;75.60;100952.53;5085291;27;96845;-75
2023/12/09 06:15:25;;;;;;;74.30;30.13;;;;;;;7.95;75.57;100944.47;5086305;27;99354;-74
2023/12/09 06:17:52;;;;;;;72.93;29.02;;;;;;;7.94;75.64;100943.59;5081011;27;98845;-75
2023/12/09 06:20:18;;;;;;;87.78;29.85;;;;;;;8.18;74.97;100942.22;5079257;27;101922;-75
2023/12/09 06:22:46;;;;;;;83.57;30.63;;;;;;;8.05;75.56;100945.16;5084959;27;96746;-75
2023/12/09 06:25:12;;;;;;;79.68;30.38;;;;;;;8.13;75.10;100944.09;5087806;27;98051;-74
2023/12/09 06:27:39;;;;;;;73.15;30.02;;;;;;;8.18;74.90;100941.34;5079797;27;100389;-74
2023/12/09 06:30:06;;;;;;;72.80;29.65;;;;;;;8.28;74.54;100942.84;5082364;27;96930;-75
2023/12/09 06:32:33;;;;;;;68.55;30.52;;;;;;;8.08;75.03;100938.03;5076814;27;96871;-75
2023/12/09 06:34:59;;;;;;;74.18;29.92;;;;;;;8.06;75.62;100944.25;5076206;27;101817;-76
2023/12/09 06:37:25;;;;;;;71.13;28.85;;;;;;;7.98;75.94;100953.19;5078567;27;99529;-73
2023/12/09 06:39:53;;;;;;;70.70;29.17;;;;;;;8.02;75.74;100954.81;5080373;27;97518;-75
2023/12/09 06:42:19;;;;;;;66.85;28.67;;;;;;;8.12;75.50;100947.63;5079888;27;97135;-74
2023/12/09 06:44:46;;;;;;;64.70;27.95;;;;;;;8.01;76.25;100954.84;5076186;27;99306;-75
2023/12/09 06:47:12;;;;;;;68.78;29.60;;;;;;;8.22;74.87;100948.25;5078041;27;98946;-75
2023/12/09 06:49:39;;;;;;;69.82;28.42;;;;;;;8.21;75.46;100960.56;5074789;27;98956;-75
2023/12/09 06:52:05;;;;;;;63.17;28.17;;;;;;;8.32;75.06;100966.50;5075558;27;96830;-76
2023/12/09 06:54:32;;;;;;;65.20;27.95;;;;;;;8.24;74.86;100963.13;5082093;27;99364;-74
2023/12/09 06:56:59;;;;;;;68.30;28.30;;;;;;;8.35;74.97;100976.94;5080288;27;98765;-75
2023/12/09 06:59:26;;;;;;;65.90;28.20;;;;;;;8.03;75.67;100979.38;5083183;27;99847;-75
2023/12/09 07:01:56;;;;;;;72.88;29.23;;;;;;;8.32;75.39;100979.66;5079254;27;97730;-75
2023/12/09 07:04:23;;;;;;;62.08;27.92;;;;;;;8.36;74.84;100972.53;5076548;27;99959;-75
2023/12/09 07:06:49;;;;;;;64.05;27.27;;;;;;;8.13;75.80;100975.66;5082577;27;99137;-75
2023/12/09 07:09:16;;;;;;;57.67;26.33;;;;;;;8.35;75.29;100983.97;5086336;27;97044;-74
2023/12/09 07:11:42;;;;;;;57.03;26.88;;;;;;;8.32;75.55;100982.28;5082650;27;97899;-74
2023/12/09 07:14:10;;;;;;;66.95;29.00;;;;;;;8.48;74.65;100976.66;5078673;27;101343;-74
2023/12/09 07:16:36;;;;;;;61.20;26.70;;;;;;;8.43;74.82;100968.00;5078778;27;99572;-73
2023/12/09 07:19:03;;;;;;;67.20;26.35;;;;;;;8.14;75.92;100974.75;5077728;27;96825;-73
2023/12/09 07:21:29;;;;;;;63.75;28.02;;;;;;;8.05;76.37;100969.69;5078103;27;97755;-73
2023/12/09 07:23:56;;;;;;;68.40;27.17;;;;;;;8.05;76.46;100972.31;5081362;27;100471;-72
2023/12/09 07:26:22;;;;;;;59.08;25.45;;;;;;;7.96;77.24;100975.16;5082003;27;100515;-73
2023/12/09 07:28:49;;;;;;;73.18;26.83;;;;;;;8.37;75.75;100971.66;5084855;27;96771;-72
2023/12/09 07:31:17;;;;;;;59.45;26.75;;;;;;;8.26;75.53;100974.50;5079452;27;96789;-72
2023/12/09 07:33:44;;;;;;;54.63;26.05;;;;;;;7.98;77.05;100971.59;5077751;27;98848;-73
2023/12/09 07:36:10;;;;;;;59.15;26.52;;;;;;;8.09;77.05;100968.72;5075664;27;99395;-75
2023/12/09 07:38:37;;;;;;;55.78;26.02;;;;;;;8.26;76.46;100960.47;5077420;27;96652;-74
2023/12/09 07:41:04;;;;;;;50.38;23.95;;;;;;;8.24;76.40;100965.75;5083744;27;96914;-72
2023/12/09 07:43:31;;;;;;;57.95;26.00;;;;;;;8.35;75.82;100968.16;5078867;27;99103;-72
2023/12/09 07:45:58;;;;;;;55.13;25.75;;;;;;;8.24;75.64;100967.53;5079645;27;98769;-72
2023/12/09 07:48:26;;;;;;;57.72;25.42;;;;;;;8.36;75.61;100965.50;5079141;27;98727;-72
2023/12/09 07:50:52;;;;;;;48.88;25.13;;;;;;;8.61;74.25;100962.28;5081586;27;96978;-72
2023/12/09 07:53:18;;;;;;;55.22;24.55;;;;;;;8.65;74.56;100963.97;5079240;27;99405;-72
2023/12/09 07:55:45;;;;;;;52.25;25.10;;;;;;;8.58;74.58;100963.25;5077707;27;99000;-71
2023/12/09 07:58:11;;;;;;;47.78;24.45;;;;;;;8.56;73.97;100966.81;5080667;27;96820;-73
2023/12/09 08:00:37;;;;;;;52.80;24.77;;;;;;;8.40;75.29;100974.22;5079014;27;97530;-73
2023/12/09 08:03:05;;;;;;;49.60;22.48;;;;;;;8.51;75.16;100968.69;5080889;27;102078;-73
2023/12/09 08:05:34;;;;;;;46.22;23.70;;;;;;;8.47;74.64;100973.16;5078815;27;98894;-73
2023/12/09 08:08:01;;;;;;;41.67;21.08;;;;;;;8.71;73.94;100966.47;5079773;27;99708;-73
2023/12/09 08:10:27;;;;;;;49.10;22.52;;;;;;;8.67;74.09;100967.41;5079097;27;96939;-71
2023/12/09 08:12:54;;;;;;;43.83;21.73;;;;;;;8.48;74.62;100958.22;5077942;27;100797;-72
2023/12/09 08:15:20;;;;;;;48.28;22.88;;;;;;;8.58;74.32;100965.00;5081007;27;99359;-73
2023/12/09 08:17:46;;;;;;;46.97;24.13;;;;;;;8.79;73.23;100967.97;5083009;27;97511;-72
2023/12/09 08:20:13;;;;;;;44.65;22.08;;;;;;;9.02;72.68;100970.06;5080132;27;98658;-72
2023/12/09 08:22:41;;;;;;;42.63;21.75;;;;;;;8.78;73.13;100975.94;5083304;27;101755;-72
2023/12/09 08:25:09;;;;;;;39.35;20.38;;;;;;;8.88;73.06;100974.78;5075607;27;98916;-73
2023/12/09 08:27:35;;;;;;;43.85;20.80;;;;;;;8.74;73.78;100974.25;5075797;27;97143;-72
2023/12/09 08:30:03;;;;;;;39.53;20.92;;;;;;;9.11;72.65;100980.38;5077419;27;97064;-71
2023/12/09 08:32:29;;;;;;;40.67;21.17;;;;;;;8.87;73.55;100980.09;5079935;27;99038;-72
2023/12/09 08:34:56;;;;;;;40.85;20.30;;;;;;;9.08;72.57;100975.16;5083026;27;99261;-73
2023/12/09 08:37:25;;;;;;;42.53;21.15;;;;;;;8.99;72.56;100975.38;5081418;27;97626;-74
2023/12/09 08:39:55;;;;;;;42.10;21.63;;;;;;;8.97;72.92;100969.31;5072471;27;99537;-72
2023/12/09 08:42:21;;;;;;;36.95;19.77;;;;;;;9.04;72.81;100964.75;5081297;27;101506;-73
2023/12/09 08:44:48;;;;;;;39.90;21.08;;;;;;;9.18;71.80;100968.75;5079404;27;98888;-73
2023/12/09 08:47:18;;;;;;;41.28;21.40;;;;;;;9.25;72.10;100960.69;5077235;27;98332;-74
2023/12/09 08:49:44;;;;;;;38.85;21.20;;;;;;;9.17;71.85;100963.53;5078145;27;97507;-73
2023/12/09 08:52:11;;;;;;;39.00;21.25;;;;;;;9.07;71.89;100968.16;5077831;27;98716;-74
2023/12/09 08:54:37;;;;;;;39.53;20.30;;;;;;;9.37;71.57;100965.63;5079813;27;98437;-73
2023/12/09 08:57:05;;;;;;;35.08;20.05;;;;;;;9.34;71.79;100957.78;5081605;27;96853;-74
2023/12/09 08:59:31;;;;;;;40.45;19.90;;;;;;;9.26;72.25;100946.56;5077485;27;98759;-73
2023/12/09 09:01:58;;;;;;;36.50;20.10;;;;;;;9.01;73.06;100947.22;5077008;27;99803;-73
2023/12/09 09:04:24;;;;;;;36.35;20.35;;;;;;;9.24;72.16;100943.13;5080537;27;97789;-72
2023/12/09 09:06:51;;;;;;;39.63;20.08;;;;;;;9.07;72.49;100940.94;5077243;27;96859;-72
2023/12/09 09:09:17;;;;;;;39.85;20.27;;;;;;;9.17;72.77;100943.28;5075162;27;97181;-73
2023/12/09 09:11:43;;;;;;;45.15;19.98;;;;;;;9.48;71.83;100943.31;5078077;27;100947;-73
2023/12/09 09:14:11;;;;;;;36.97;19.67;;;;;;;9.42;71.63;100937.34;5076857;27;98827;-72
2023/12/09 09:16:38;;;;;;;33.58;18.90;;;;;;;9.36;71.92;100933.13;5078590;27;97151;-69
2023/12/09 09:19:04;;;;;;;40.50;21.15;;;;;;;9.73;70.24;100940.84;5068540;27;98445;-74
2023/12/09 09:21:31;;;;;;;35.75;19.40;;;;;;;9.41;71.23;100935.63;5077197;27;99178;-74
2023/12/09 09:23:59;;;;;;;36.35;19.92;;;;;;;9.61;71.03;100941.19;5077520;27;99004;-74
2023/12/09 09:26:25;;;;;;;36.30;19.20;;;;;;;9.65;70.91;100934.91;5080922;27;96768;-73
2023/12/09 09:28:52;;;;;;;35.58;19.48;;;;;;;9.57;71.47;100927.25;5080562;27;98694;-74
2023/12/09 09:31:19;;;;;;;34.80;19.67;;;;;;;9.38;71.74;100926.03;5083578;27;100056;-74
2023/12/09 09:33:46;;;;;;;35.63;19.70;;;;;;;9.66;71.69;100931.38;5081980;27;98297;-74
2023/12/09 09:36:12;;;;;;;36.80;19.55;;;;;;;9.55;71.43;100933.47;5079210;27;97421;-74
2023/12/09 09:38:39;;;;;;;32.78;18.15;;;;;;;9.47;71.61;100938.09;5080834;27;97587;-74
2023/12/09 09:41:11;;;;;;;34.33;18.48;;;;;;;9.49;71.89;100936.28;5083970;27;98362;-74
2023/12/09 09:43:44;;;;;;;33.20;18.50;;;;;;;9.38;72.24;100935.72;5078066;27;99718;-74
2023/12/09 09:46:13;;;;;;;35.78;19.27;;;;;;;9.67;71.64;100933.09;5079420;27;97970;-74
2023/12/09 09:48:44;;;;;;;35.97;18.70;;;;;;;9.63;71.35;100935.88;5083912;27;97504;-74
2023/12/09 09:51:17;;;;;;;35.63;18.80;;;;;;;9.56;71.88;100929.91;5081188;27;99055;-74
2023/12/09 09:53:52;;;;;;;43.75;18.73;;;;;;;9.44;72.19;100931.13;5078072;27;101229;-73
2023/12/09 09:56:19;;;;;;;34.88;18.80;;;;;;;9.30;72.44;100928.00;5082112;27;97392;-73
2023/12/09 09:58:47;;;;;;;35.67;19.27;;;;;;;9.43;71.87;100925.91;5072723;27;97123;-76
2023/12/09 10:01:18;;;;;;;37.67;19.15;;;;;;;9.51;72.06;100926.56;5081539;27;98719;-74
2023/12/09 10:03:47;;;;;;;34.75;17.60;;;;;;;9.48;72.46;100913.44;5078756;27;98833;-73
2023/12/09 10:06:14;;;;;;;35.97;18.55;;;;;;;9.49;72.77;100912.53;5082017;27;97127;-74
2023/12/09 10:08:41;;;;;;;35.00;17.77;;;;;;;9.54;72.12;100910.63;5079199;27;97810;-76
2023/12/09 10:11:08;;;;;;;35.15;18.08;;;;;;;9.34;73.14;100907.69;5083843;27;102201;-75
2023/12/09 10:13:35;;;;;;;36.15;18.27;;;;;;;9.29;73.16;100894.63;5081808;27;99301;-73
2023/12/09 10:16:01;;;;;;;32.08;17.40;;;;;;;9.12;74.23;100888.97;5076411;27;97100;-74
2023/12/09 10:18:31;;;;;;;29.35;17.27;;;;;;;9.10;74.49;100883.72;5083880;27;97700;-75
2023/12/09 10:20:58;;;;;;;33.20;17.10;;;;;;;9.24;74.19;100887.75;5083087;27;101366;-75
2023/12/09 10:23:25;;;;;;;37.40;18.15;;;;;;;9.20;74.60;100879.06;5079110;27;98848;-74
2023/12/09 10:25:51;;;;;;;31.13;17.48;;;;;;;9.51;73.56;100881.72;5079451;27;96876;-75
2023/12/09 10:28:18;;;;;;;34.63;18.30;;;;;;;9.50;73.38;100882.63;5080846;27;99923;-75
2023/12/09 10:30:47;;;;;;;32.85;18.13;;;;;;;9.49;72.93;100875.59;5078401;27;99291;-75
2023/12/09 10:33:15;;;;;;;29.80;16.67;;;;;;;9.66;73.06;100873.31;5076817;27;101523;-75
2023/12/09 10:35:41;;;;;;;34.00;18.05;;;;;;;9.82;71.89;100863.19;5081187;27;96984;-75
2023/12/09 10:38:09;;;;;;;32.25;17.15;;;;;;;9.52;73.11;100867.59;5082401;27;97401;-75
2023/12/09 10:40:37;;;;;;;32.38;16.42;;;;;;;9.73;72.32;100861.69;5078710;27;98828;-75
2023/12/09 10:43:04;;;;;;;37.22;17.70;;;;;;;9.77;72.16;100851.91;5086653;27;98077;-74
2023/12/09 10:45:31;;;;;;;31.77;16.98;;;;;;;9.68;72.23;100847.78;5075144;27;96811;-75
2023/12/09 10:47:58;;;;;;;31.60;16.75;;;;;;;9.75;72.24;100846.69;5082049;27;97824;-75
2023/12/09 10:50:25;;;;;;;29.58;15.35;;;;;;;9.82;71.63;100842.94;5089142;27;99591;-75
2023/12/09 10:52:52;;;;;;;26.25;14.50;;;;;;;9.89;72.09;100833.91;5087356;27;101732;-78
2023/12/09 10:55:20;;;;;;;28.02;15.15;;;;;;;9.66;73.19;100835.53;5085123;27;97145;-76
2023/12/09 10:57:48;;;;;;;32.17;15.93;;;;;;;9.78;72.26;100824.63;5084422;27;96906;-75
2023/12/09 11:00:15;;;;;;;29.08;16.13;;;;;;;9.97;71.62;100816.06;5074221;27;102463;-76
2023/12/09 11:02:42;;;;;;;32.83;17.25;;;;;;;9.91;71.79;100813.59;5084198;27;99106;-75
2023/12/09 11:05:09;;;;;;;29.27;16.05;;;;;;;9.94;71.95;100810.88;5082065;27;96898;-75
2023/12/09 11:07:37;;;;;;;30.90;15.70;;;;;;;10.10;71.14;100798.06;5083597;27;97070;-76
2023/12/09 11:10:06;;;;;;;28.30;15.40;;;;;;;9.96;70.95;100802.91;5079132;27;97662;-75
2023/12/09 11:12:36;;;;;;;31.92;16.30;;;;;;;9.96;71.25;100803.78;5078201;27;101498;-75
2023/12/09 11:15:08;;;;;;;33.13;15.90;;;;;;;10.12;71.15;100800.63;5082781;27;97128;-75